Time;durP1;ratioP1;P1;durP2;ratioP2;P2;SDS_P1;SDS_P2;PMS_P1;PMS_P2;Temp;Humidity;BMP_temperature;BMP_pressure;BME280_temperature;BME280_humidity;BME280_pressure;Samples;Min_cycle;Max_cycle;Signal;HPM_P1;HPM_P2
2022/03/10 00:00:16;;;;;;;;;;;;;;;0.36;82.14;100095.47;5051420;28;19915;-51
2022/03/10 00:02:45;;;;;;;;;;;;;;;0.23;82.74;100086.13;5051161;28;19958;-48
2022/03/10 00:05:15;;;;;;;;;;;;;;;0.35;82.35;100091.19;5051135;28;19908;-47
2022/03/10 00:07:40;;;;;;;;;;;;;;;0.33;81.30;100089.66;5050807;28;19946;-48
2022/03/10 00:10:06;;;;;;;;;;;;;;;0.23;79.85;100087.00;5051498;28;19959;-50
2022/03/10 00:12:31;;;;;;;;;;;;;;;0.35;78.88;100087.75;5051159;28;19920;-51
2022/03/10 00:14:57;;;;;;;;;;;;;;;0.46;77.52;100094.69;5050779;28;20284;-50
2022/03/10 00:17:22;;;;;;;;;;;;;;;0.55;75.68;100089.53;5050984;28;20277;-48
2022/03/10 00:19:47;;;;;;;;;;;;;;;0.43;76.13;100092.34;5051182;28;19915;-51
2022/03/10 00:22:12;;;;;;;;;;;;;;;0.38;74.46;100095.31;5051303;28;20432;-49
2022/03/10 00:24:38;;;;;;;;;;;;;;;0.41;76.24;100095.06;5051075;28;19921;-49
2022/03/10 00:27:04;;;;;;;;;;;;;;;0.63;73.72;100095.88;5051232;28;20407;-53
2022/03/10 00:29:29;;;;;;;;;;;;;;;0.65;72.19;100086.94;5051729;28;19952;-36
2022/03/10 00:31:55;;;;;;;;;;;;;;;0.94;70.43;100099.31;5051693;28;20007;-37
2022/03/10 00:34:20;;;;;;;;;;;;;;;0.58;70.06;100094.47;5051412;28;19909;-37
2022/03/10 00:36:45;;;;;;;;;;;;;;;0.42;69.73;100088.03;5051582;28;19947;-37
2022/03/10 00:39:11;;;;;;;;;;;;;;;0.36;68.60;100090.25;5051739;28;19909;-38
2022/03/10 00:41:36;;;;;;;;;;;;;;;0.30;69.95;100084.69;5051603;28;20445;-37
2022/03/10 00:44:01;;;;;;;;;;;;;;;0.18;71.39;100086.53;5051827;28;19908;-37
2022/03/10 00:46:26;;;;;;;;;;;;;;;0.45;69.76;100091.25;5051675;28;19977;-37
2022/03/10 00:48:52;;;;;;;;;;;;;;;0.70;68.35;100086.53;5051746;28;19931;-37
2022/03/10 00:51:17;;;;;;;;;;;;;;;0.58;67.50;100091.03;5062766;28;19917;-37
2022/03/10 00:53:42;;;;;;;;;;;;;;;0.38;69.41;100095.31;5071640;28;20295;-36
2022/03/10 00:56:07;;;;;;;;;;;;;;;0.37;69.02;100084.03;5053650;28;19991;-38
2022/03/10 00:58:33;;;;;;;;;;;;;;;0.37;68.98;100077.97;5051615;28;20033;-38
2022/03/10 01:00:58;;;;;;;;;;;;;;;0.32;69.26;100077.53;5051286;28;19915;-38
2022/03/10 01:03:23;;;;;;;;;;;;;;;0.49;68.43;100076.09;5051525;28;19915;-36
2022/03/10 01:05:49;;;;;;;;;;;;;;;0.45;68.42;100082.56;5051564;28;20388;-38
2022/03/10 01:08:15;;;;;;;;;;;;;;;0.50;66.86;100075.97;5051241;28;19916;-38
2022/03/10 01:13:24;;;;;;;;;;;;;;;0.48;67.70;100069.22;5051799;28;19919;-38
2022/03/10 01:15:50;;;;;;;;;;;;;;;0.41;68.05;100068.06;5051435;28;20003;-38
2022/03/10 01:18:15;;;;;;;;;;;;;;;0.56;67.47;100074.63;5051318;28;19920;-36
2022/03/10 01:20:40;;;;;;;;;;;;;;;0.59;67.46;100071.72;5051559;28;20323;-36
2022/03/10 01:23:06;;;;;;;;;;;;;;;0.36;67.59;100069.28;5051239;28;19913;-36
2022/03/10 01:25:31;;;;;;;;;;;;;;;0.23;67.23;100071.28;5051433;28;19947;-36
2022/03/10 01:27:56;;;;;;;;;;;;;;;0.51;62.78;100072.38;5054982;28;20368;-36
2022/03/10 01:30:21;;;;;;;;;;;;;;;0.47;60.56;100070.97;5054991;28;19995;-37
2022/03/10 01:32:47;;;;;;;;;;;;;;;0.48;62.42;100064.81;5054665;28;19950;-37
2022/03/10 01:35:12;;;;;;;;;;;;;;;0.31;61.77;100063.59;5054622;28;19908;-36
2022/03/10 01:37:38;;;;;;;;;;;;;;;-0.02;61.85;100068.09;5037011;28;19908;-37
2022/03/10 01:40:04;;;;;;;;;;;;;;;0.42;60.58;100073.19;5054652;28;19909;-37
2022/03/10 01:42:29;;;;;;;;;;;;;;;0.34;61.31;100070.38;5054763;28;19909;-37
2022/03/10 01:44:55;;;;;;;;;;;;;;;-0.01;61.88;100068.91;5054810;28;19961;-37
2022/03/10 01:47:20;;;;;;;;;;;;;;;0.13;61.45;100065.16;5054718;28;19916;-37
2022/03/10 01:49:45;;;;;;;;;;;;;;;0.09;60.84;100068.97;5054562;28;19912;-37
2022/03/10 01:52:11;;;;;;;;;;;;;;;0.38;59.15;100061.28;5073520;28;19954;-37
2022/03/10 01:54:36;;;;;;;;;;;;;;;0.50;57.83;100070.75;5069095;28;20296;-37
2022/03/10 01:57:02;;;;;;;;;;;;;;;0.35;58.37;100059.75;5054427;28;20034;-37
2022/03/10 01:59:27;;;;;;;;;;;;;;;0.31;59.41;100063.59;5036773;28;19958;-37
2022/03/10 02:01:52;;;;;;;;;;;;;;;0.37;59.32;100064.88;5054224;28;20398;-37
2022/03/10 02:04:18;;;;;;;;;;;;;;;0.33;58.32;100066.09;5054214;28;20064;-37
2022/03/10 02:06:43;;;;;;;;;;;;;;;0.27;58.31;100069.25;5053969;28;19909;-37
2022/03/10 02:11:52;;;;;;;;;;;;;;;0.23;58.63;100066.06;5053785;28;20327;-37
2022/03/10 02:17:20;;;;;;;;;;;;;;;0.54;58.20;100069.50;5053152;28;20388;-37
2022/03/10 02:19:45;;;;;;;;;;;;;;;0.66;57.74;100059.75;5053692;28;19916;-37
2022/03/10 02:22:11;;;;;;;;;;;;;;;0.33;58.97;100064.31;5053424;28;20285;-36
2022/03/10 02:24:37;;;;;;;;;;;;;;;0.44;58.83;100063.41;5063607;28;20431;-36
2022/03/10 02:27:15;;;;;;;;;;;;;;;0.33;58.51;100064.31;5072698;28;20009;-37
2022/03/10 02:29:40;;;;;;;;;;;;;;;0.28;58.45;100063.03;5073321;28;20380;-38
2022/03/10 02:32:06;;;;;;;;;;;;;;;0.18;59.41;100065.59;5073779;28;20003;-35
2022/03/10 02:34:31;;;;;;;;;;;;;;;0.08;59.84;100067.34;5073383;28;20341;-35
2022/03/10 02:36:56;;;;;;;;;;;;;;;0.26;59.48;100062.34;5072747;28;19908;-36
2022/03/10 02:39:22;;;;;;;;;;;;;;;0.24;57.94;100064.25;5073401;28;20264;-36
2022/03/10 02:41:47;;;;;;;;;;;;;;;0.21;58.64;100064.50;5073492;28;19915;-35
2022/03/10 02:44:12;;;;;;;;;;;;;;;1.06;57.35;100074.66;5073603;28;20033;-36
2022/03/10 02:46:37;;;;;;;;;;;;;;;1.58;56.54;100076.25;5073546;28;19908;-36
2022/03/10 02:49:03;;;;;;;;;;;;;;;1.85;57.02;100075.59;5073587;28;20388;-36
2022/03/10 02:51:28;;;;;;;;;;;;;;;2.07;66.63;100077.06;5060403;28;19944;-37
2022/03/10 02:53:53;;;;;;;;;;;;;;;0.88;59.05;100081.53;5053382;28;19912;-36
2022/03/10 02:56:18;;;;;;;;;;;;;;;0.87;59.95;100080.66;5053330;28;19912;-36
2022/03/10 02:58:44;;;;;;;;;;;;;;;0.91;59.00;100087.28;5053404;28;19912;-36
2022/03/10 03:01:09;;;;;;;;;;;;;;;0.79;60.93;100088.38;5053259;28;20225;-36
2022/03/10 03:03:34;;;;;;;;;;;;;;;0.56;61.41;100080.69;5052837;28;19909;-36
2022/03/10 03:05:59;;;;;;;;;;;;;;;0.75;60.52;100089.59;5052872;28;19908;-37
2022/03/10 03:08:25;;;;;;;;;;;;;;;0.71;60.49;100091.66;5053049;28;19913;-37
2022/03/10 03:10:50;;;;;;;;;;;;;;;0.54;60.72;100090.47;5052801;28;19908;-36
2022/03/10 03:13:15;;;;;;;;;;;;;;;0.24;61.33;100093.88;5053370;28;19923;-37
2022/03/10 03:15:40;;;;;;;;;;;;;;;0.24;63.31;100088.63;5053091;28;19987;-37
2022/03/10 03:18:06;;;;;;;;;;;;;;;0.36;61.33;100092.88;5052988;28;20015;-36
2022/03/10 03:20:31;;;;;;;;;;;;;;;0.41;61.84;100092.47;5052991;28;19908;-37
2022/03/10 03:22:56;;;;;;;;;;;;;;;0.45;62.14;100091.25;5052968;28;20291;-37
2022/03/10 03:25:22;;;;;;;;;;;;;;;0.25;62.97;100085.06;5052553;28;19921;-37
2022/03/10 03:27:47;;;;;;;;;;;;;;;0.07;63.40;100091.84;5053039;28;19909;-47
2022/03/10 03:30:12;;;;;;;;;;;;;;;0.16;62.51;100096.31;5052735;28;19908;-49
2022/03/10 03:32:37;;;;;;;;;;;;;;;0.27;63.27;100093.63;5052561;28;19917;-49
2022/03/10 03:35:03;;;;;;;;;;;;;;;0.10;62.45;100091.59;5052267;28;19916;-50
2022/03/10 03:37:28;;;;;;;;;;;;;;;0.21;62.57;100095.91;5052912;28;20313;-48
2022/03/10 03:39:53;;;;;;;;;;;;;;;0.13;63.17;100102.63;5052157;28;20399;-50
2022/03/10 03:42:19;;;;;;;;;;;;;;;0.41;61.69;100099.50;5052151;28;19912;-51
2022/03/10 03:44:44;;;;;;;;;;;;;;;0.42;60.32;100104.59;5052453;28;19909;-49
2022/03/10 03:47:09;;;;;;;;;;;;;;;0.50;60.48;100104.78;5052300;28;19909;-51
2022/03/10 03:49:35;;;;;;;;;;;;;;;0.45;60.14;100106.94;5051203;28;19919;-52
2022/03/10 03:52:00;;;;;;;;;;;;;;;0.24;60.46;100104.34;5055404;28;20054;-50
2022/03/10 03:54:25;;;;;;;;;;;;;;;0.10;59.84;100104.69;5051813;28;19920;-50
2022/03/10 03:56:51;;;;;;;;;;;;;;;0.45;58.05;100106.13;5051888;28;20003;-51
2022/03/10 03:59:16;;;;;;;;;;;;;;;0.25;60.73;100115.63;5051845;28;19924;-50
2022/03/10 04:01:41;;;;;;;;;;;;;;;0.21;60.32;100122.09;5051931;28;19992;-50
2022/03/10 04:04:06;;;;;;;;;;;;;;;0.26;60.09;100114.69;5052096;28;19912;-50
2022/03/10 04:06:32;;;;;;;;;;;;;;;0.10;61.28;100125.63;5052224;28;19916;-51
2022/03/10 04:08:57;;;;;;;;;;;;;;;0.21;61.21;100128.19;5034146;28;19909;-48
2022/03/10 04:11:22;;;;;;;;;;;;;;;0.24;61.85;100127.09;5051886;28;19920;-47
2022/03/10 04:13:48;;;;;;;;;;;;;;;0.27;60.21;100125.03;5051911;28;20458;-47
2022/03/10 04:16:13;;;;;;;;;;;;;;;0.03;61.01;100130.50;5051968;28;19951;-48
2022/03/10 04:18:38;;;;;;;;;;;;;;;0.13;61.06;100128.81;5051851;28;19908;-47
2022/03/10 04:21:03;;;;;;;;;;;;;;;0.22;62.33;100129.00;5052048;28;20352;-50
2022/03/10 04:23:29;;;;;;;;;;;;;;;0.45;59.30;100132.31;5051468;28;19917;-50
2022/03/10 04:25:54;;;;;;;;;;;;;;;0.55;62.82;100141.91;5051657;28;19912;-51
2022/03/10 04:28:20;;;;;;;;;;;;;;;0.71;59.47;100144.03;5051708;28;20097;-51
2022/03/10 04:30:46;;;;;;;;;;;;;;;0.22;60.46;100145.53;5051377;28;19916;-52
2022/03/10 04:33:11;;;;;;;;;;;;;;;0.07;62.19;100152.03;5050777;28;19919;-52
2022/03/10 04:35:36;;;;;;;;;;;;;;;0.05;62.60;100151.31;5050249;28;19915;-52
2022/03/10 04:38:02;;;;;;;;;;;;;;;-0.02;62.84;100157.06;5050251;28;19928;-51
2022/03/10 04:40:27;;;;;;;;;;;;;;;0.11;61.09;100156.88;5050638;28;19940;-48
2022/03/10 04:42:53;;;;;;;;;;;;;;;0.06;61.66;100166.06;5032191;28;19913;-50
2022/03/10 04:45:18;;;;;;;;;;;;;;;0.05;61.03;100172.25;5050002;28;20364;-50
2022/03/10 04:47:43;;;;;;;;;;;;;;;-0.05;60.99;100177.41;5050200;28;19909;-50
2022/03/10 04:50:10;;;;;;;;;;;;;;;0.05;61.38;100185.34;5049737;28;19915;-49
2022/03/10 04:52:35;;;;;;;;;;;;;;;0.33;59.66;100182.13;5049887;28;19917;-48
2022/03/10 04:55:00;;;;;;;;;;;;;;;0.30;60.11;100190.22;5049734;28;19990;-49
2022/03/10 04:57:26;;;;;;;;;;;;;;;0.31;60.01;100193.69;5050173;28;19912;-52
2022/03/10 04:59:51;;;;;;;;;;;;;;;0.34;59.12;100196.91;5051320;28;19940;-52
2022/03/10 05:02:16;;;;;;;;;;;;;;;0.24;57.70;100201.22;5053799;28;19916;-49
2022/03/10 05:04:42;;;;;;;;;;;;;;;0.12;57.72;100204.84;5054454;28;19909;-49
2022/03/10 05:07:07;;;;;;;;;;;;;;;-0.05;58.03;100199.19;5055009;28;19951;-48
2022/03/10 05:09:32;;;;;;;;;;;;;;;-0.05;58.62;100206.19;5054819;28;20401;-51
2022/03/10 05:11:58;;;;;;;;;;;;;;;0.13;57.31;100206.47;5036767;28;19927;-50
2022/03/10 05:14:24;;;;;;;;;;;;;;;-0.14;58.20;100210.38;5051920;28;19908;-49
2022/03/10 05:16:49;;;;;;;;;;;;;;;0.29;57.34;100209.53;5055065;28;19966;-49
2022/03/10 05:19:14;;;;;;;;;;;;;;;0.34;57.58;100217.00;5054949;28;20343;-49
2022/03/10 05:21:39;;;;;;;;;;;;;;;0.37;57.05;100209.72;5055423;28;20380;-49
2022/03/10 05:24:05;;;;;;;;;;;;;;;0.31;57.94;100223.31;5054645;28;19924;-48
2022/03/10 05:26:30;;;;;;;;;;;;;;;0.16;58.94;100232.41;5054866;28;20268;-51
2022/03/10 05:28:55;;;;;;;;;;;;;;;0.32;58.73;100235.44;5054435;28;20380;-49
2022/03/10 05:31:21;;;;;;;;;;;;;;;0.81;57.48;100229.75;5054738;28;19961;-49
2022/03/10 05:33:47;;;;;;;;;;;;;;;0.97;56.43;100237.94;5054256;28;19934;-51
2022/03/10 05:36:12;;;;;;;;;;;;;;;1.24;56.81;100237.44;5054630;28;19915;-51
2022/03/10 05:38:37;;;;;;;;;;;;;;;1.69;54.54;100241.44;5054473;28;20372;-50
2022/03/10 05:41:05;;;;;;;;;;;;;;;1.81;54.34;100244.78;5054291;28;19959;-49
2022/03/10 05:43:30;;;;;;;;;;;;;;;1.73;54.56;100241.06;5053551;28;19909;-51
2022/03/10 05:45:55;;;;;;;;;;;;;;;1.86;54.11;100242.59;5054103;28;19923;-50
2022/03/10 05:48:21;;;;;;;;;;;;;;;1.62;53.48;100249.03;5053589;28;20016;-50
2022/03/10 05:50:46;;;;;;;;;;;;;;;1.75;54.06;100252.25;5060852;28;20268;-52
2022/03/10 05:53:11;;;;;;;;;;;;;;;1.75;54.25;100244.38;5074056;28;19912;-51
2022/03/10 05:55:37;;;;;;;;;;;;;;;2.11;53.84;100249.97;5073444;28;20395;-52
2022/03/10 05:58:02;;;;;;;;;;;;;;;2.27;54.44;100253.84;5073430;28;19916;-49
2022/03/10 06:00:27;;;;;;;;;;;;;;;2.48;54.61;100253.72;5050256;28;19924;-50
2022/03/10 06:02:53;;;;;;;;;;;;;;;3.07;54.64;100257.09;5053013;28;19931;-50
2022/03/10 06:05:18;;;;;;;;;;;;;;;3.50;53.34;100259.19;5053778;28;19920;-51
2022/03/10 06:07:43;;;;;;;;;;;;;;;3.89;52.93;100258.97;5036065;28;19913;-50
2022/03/10 06:10:09;;;;;;;;;;;;;;;3.92;50.92;100253.44;5033988;28;19916;-54
2022/03/10 06:12:34;;;;;;;;;;;;;;;4.21;49.64;100257.66;5032952;28;19916;-54
2022/03/10 06:15:00;;;;;;;;;;;;;;;4.33;48.81;100263.53;5033424;28;19909;-53
2022/03/10 06:17:26;;;;;;;;;;;;;;;4.68;47.41;100270.63;5032613;28;19909;-51
2022/03/10 06:19:51;;;;;;;;;;;;;;;4.79;47.91;100266.06;5032549;28;19959;-51
2022/03/10 06:22:17;;;;;;;;;;;;;;;5.11;45.77;100262.03;5033050;28;19913;-53
2022/03/10 06:24:42;;;;;;;;;;;;;;;5.13;45.28;100266.16;5032689;28;19921;-50
2022/03/10 06:27:07;;;;;;;;;;;;;;;5.29;45.01;100263.63;5033103;28;20000;-51
2022/03/10 06:29:33;;;;;;;;;;;;;;;5.43;44.46;100266.66;5032227;28;19909;-50
2022/03/10 06:31:58;;;;;;;;;;;;;;;5.78;43.62;100268.28;5030898;28;19948;-52
2022/03/10 06:34:23;;;;;;;;;;;;;;;5.80;44.67;100268.97;5031592;28;19940;-51
2022/03/10 06:36:49;;;;;;;;;;;;;;;6.24;46.37;100270.59;5031288;28;19909;-52
2022/03/10 06:39:14;;;;;;;;;;;;;;;6.97;46.19;100248.66;5030736;28;19912;-50
2022/03/10 06:41:39;;;;;;;;;;;;;;;7.24;45.98;100273.09;5031209;28;19909;-51
2022/03/10 06:44:05;;;;;;;;;;;;;;;7.04;47.63;100281.41;5031364;28;20004;-50
2022/03/10 06:46:30;;;;;;;;;;;;;;;6.32;50.13;100286.50;5032867;28;19909;-50
2022/03/10 06:48:55;;;;;;;;;;;;;;;6.20;51.01;100291.22;5032677;28;19912;-50
2022/03/10 06:51:21;;;;;;;;;;;;;;;6.12;51.10;100285.94;5056832;28;19947;-52
2022/03/10 06:53:46;;;;;;;;;;;;;;;6.18;51.10;100284.47;5072042;28;20233;-52
2022/03/10 06:56:11;;;;;;;;;;;;;;;6.39;50.48;100294.59;5072472;28;19913;-49
2022/03/10 06:58:37;;;;;;;;;;;;;;;5.61;51.88;100285.06;5072698;28;19908;-50
2022/03/10 07:01:02;;;;;;;;;;;;;;;5.05;53.10;100298.59;5072660;28;19978;-51
2022/03/10 07:03:27;;;;;;;;;;;;;;;4.68;53.92;100301.41;5054993;28;19908;-51
2022/03/10 07:05:53;;;;;;;;;;;;;;;4.44;54.03;100294.13;5052635;28;20335;-50
2022/03/10 07:08:18;;;;;;;;;;;;;;;4.31;55.04;100299.75;5052301;28;20364;-49
2022/03/10 07:10:43;;;;;;;;;;;;;;;4.56;54.75;100295.53;5052346;28;19909;-51
2022/03/10 07:13:08;;;;;;;;;;;;;;;4.66;54.59;100298.94;5052201;28;19916;-52
2022/03/10 07:15:34;;;;;;;;;;;;;;;4.85;53.45;100299.75;5052376;28;19923;-50
2022/03/10 07:17:59;;;;;;;;;;;;;;;4.62;53.30;100296.75;5052097;28;19908;-50
2022/03/10 07:20:24;;;;;;;;;;;;;;;4.49;54.96;100297.97;5052077;28;20300;-50
2022/03/10 07:22:49;;;;;;;;;;;;;;;4.85;53.99;100302.38;5051916;28;20004;-52
2022/03/10 07:25:15;;;;;;;;;;;;;;;5.38;53.26;100301.44;5051854;28;20369;-51
2022/03/10 07:27:40;;;;;;;;;;;;;;;5.34;52.39;100296.63;5050952;28;19916;-50
2022/03/10 07:30:07;;;;;;;;;;;;;;;5.46;52.30;100295.38;5050777;28;19919;-52
2022/03/10 07:32:33;;;;;;;;;;;;;;;5.77;53.14;100298.34;5051457;28;19942;-49
2022/03/10 07:34:59;;;;;;;;;;;;;;;6.15;49.89;100301.47;5051729;28;19915;-49
2022/03/10 07:37:24;;;;;;;;;;;;;;;5.38;49.86;100297.97;5033670;28;19909;-48
2022/03/10 07:39:49;;;;;;;;;;;;;;;5.50;49.75;100299.34;5051495;28;19966;-48
2022/03/10 07:42:15;;;;;;;;;;;;;;;5.73;50.28;100291.72;5051548;28;20094;-48
2022/03/10 07:44:40;;;;;;;;;;;;;;;6.22;48.50;100293.72;5051530;28;20296;-51
2022/03/10 07:47:06;;;;;;;;;;;;;;;6.44;48.35;100284.34;5051270;28;19920;-49
2022/03/10 07:49:32;;;;;;;;;;;;;;;6.54;47.89;100286.84;5051372;28;19909;-52
2022/03/10 07:51:58;;;;;;;;;;;;;;;5.92;48.87;100282.72;5068397;28;19970;-50
2022/03/10 07:54:23;;;;;;;;;;;;;;;5.72;50.16;100286.59;5071267;28;19909;-50
2022/03/10 07:56:48;;;;;;;;;;;;;;;6.38;46.43;100285.03;5071245;28;19916;-48
2022/03/10 07:59:14;;;;;;;;;;;;;;;6.99;46.27;100290.81;5071334;28;19912;-50
2022/03/10 08:01:39;;;;;;;;;;;;;;;7.64;43.95;100281.91;5068873;28;19909;-48
2022/03/10 08:04:05;;;;;;;;;;;;;;;8.00;44.41;100281.44;5051070;28;20342;-48
2022/03/10 08:06:30;;;;;;;;;;;;;;;8.19;42.70;100282.81;5051083;28;19916;-50
2022/03/10 08:08:55;;;;;;;;;;;;;;;7.81;41.85;100283.50;5051144;28;19935;-51
2022/03/10 08:11:20;;;;;;;;;;;;;;;7.86;40.98;100280.31;5051024;28;20031;-52
2022/03/10 08:13:46;;;;;;;;;;;;;;;7.20;42.38;100280.53;5050777;28;19917;-47
2022/03/10 08:16:11;;;;;;;;;;;;;;;7.27;41.76;100282.50;5032893;28;20360;-52
2022/03/10 08:18:36;;;;;;;;;;;;;;;7.22;40.56;100281.19;5050440;28;19913;-50
2022/03/10 08:21:01;;;;;;;;;;;;;;;8.32;41.15;100276.91;5050771;28;20221;-49
2022/03/10 08:23:27;;;;;;;;;;;;;;;8.62;41.86;100280.56;5051109;28;19916;-49
2022/03/10 08:25:52;;;;;;;;;;;;;;;8.11;40.94;100281.03;5050561;28;20019;-49
2022/03/10 08:28:18;;;;;;;;;;;;;;;7.70;42.22;100285.69;5050995;28;20300;-51
2022/03/10 08:30:43;;;;;;;;;;;;;;;7.02;43.53;100288.66;5050651;28;19924;-50
2022/03/10 08:33:08;;;;;;;;;;;;;;;6.86;43.80;100286.03;5050879;28;19912;-49
2022/03/10 08:35:33;;;;;;;;;;;;;;;6.33;43.16;100296.06;5055638;28;20281;-48
2022/03/10 08:37:59;;;;;;;;;;;;;;;6.26;43.03;100282.69;5057226;28;20014;-48
2022/03/10 08:40:24;;;;;;;;;;;;;;;5.91;42.91;100288.16;5057637;28;20368;-50
2022/03/10 08:42:49;;;;;;;;;;;;;;;5.78;42.59;100283.31;5039279;28;19908;-52
2022/03/10 08:45:15;;;;;;;;;;;;;;;6.78;39.99;100288.69;5057334;28;19912;-53
2022/03/10 08:47:40;;;;;;;;;;;;;;;7.60;38.64;100288.56;5057569;28;19970;-50
2022/03/10 08:50:06;;;;;;;;;;;;;;;7.77;38.62;100282.19;5059153;28;19913;-49
2022/03/10 08:52:31;;;;;;;;;;;;;;;8.25;36.83;100290.06;5077122;28;19966;-49
2022/03/10 08:54:56;;;;;;;;;;;;;;;7.24;36.27;100287.13;5077447;28;19912;-50
2022/03/10 08:57:21;;;;;;;;;;;;;;;6.23;37.65;100285.63;5077501;28;19908;-51
2022/03/10 08:59:47;;;;;;;;;;;;;;;6.37;36.52;100283.34;5077424;28;19908;-49
2022/03/10 09:02:12;;;;;;;;;;;;;;;6.25;38.74;100291.59;5070408;28;19908;-47
2022/03/10 09:04:37;;;;;;;;;;;;;;;5.81;38.56;100289.13;5057421;28;19915;-48
2022/03/10 09:07:03;;;;;;;;;;;;;;;6.01;38.52;100283.59;5056904;28;20351;-48
2022/03/10 09:09:28;;;;;;;;;;;;;;;6.55;37.36;100286.69;5057453;28;19909;-51
2022/03/10 09:11:54;;;;;;;;;;;;;;;6.83;35.93;100284.56;5056890;28;19916;-49
2022/03/10 09:14:19;;;;;;;;;;;;;;;6.85;38.36;100294.94;5039169;28;20311;-49
2022/03/10 09:16:45;;;;;;;;;;;;;;;6.30;38.07;100283.16;5057117;28;19909;-49
2022/03/10 09:19:11;;;;;;;;;;;;;;;6.39;38.93;100286.66;5057119;28;19909;-49
2022/03/10 09:21:36;;;;;;;;;;;;;;;5.84;39.48;100283.50;5057278;28;19917;-50
2022/03/10 09:24:01;;;;;;;;;;;;;;;6.24;38.40;100284.66;5056791;28;19947;-52
2022/03/10 09:26:26;;;;;;;;;;;;;;;6.34;38.54;100283.66;5038885;28;19920;-48
2022/03/10 09:28:52;;;;;;;;;;;;;;;5.38;40.56;100280.31;5057181;28;19913;-50
2022/03/10 09:31:17;;;;;;;;;;;;;;;5.25;40.66;100286.03;5057023;28;19934;-53
2022/03/10 09:33:45;;;;;;;;;;;;;;;5.43;40.38;100285.97;5057069;28;19921;-51
2022/03/10 09:36:10;;;;;;;;;;;;;;;5.67;40.53;100282.63;5056612;28;19915;-49
2022/03/10 09:38:36;;;;;;;;;;;;;;;5.73;41.04;100283.81;5056857;28;19908;-51
2022/03/10 09:41:01;;;;;;;;;;;;;;;6.29;40.75;100283.34;5056938;28;19909;-49
2022/03/10 09:43:27;;;;;;;;;;;;;;;6.01;39.36;100279.13;5055990;28;19913;-48
2022/03/10 09:45:52;;;;;;;;;;;;;;;5.14;40.51;100278.38;5053695;28;19909;-48
2022/03/10 09:48:17;;;;;;;;;;;;;;;5.33;40.14;100277.34;5052123;28;19955;-48
2022/03/10 09:50:43;;;;;;;;;;;;;;;5.11;40.30;100288.41;5059093;28;19991;-49
2022/03/10 09:53:08;;;;;;;;;;;;;;;5.37;40.64;100280.47;5072484;28;19913;-49
2022/03/10 09:55:33;;;;;;;;;;;;;;;5.73;39.16;100277.69;5055134;28;19909;-48
2022/03/10 09:57:59;;;;;;;;;;;;;;;5.87;38.51;100272.63;5072514;28;19908;-51
2022/03/10 10:00:24;;;;;;;;;;;;;;;6.02;40.52;100274.69;5072476;28;19909;-49
2022/03/10 10:02:51;;;;;;;;;;;;;;;6.14;37.92;100277.84;5059758;28;20214;-48
2022/03/10 10:05:20;;;;;;;;;;;;;;;6.31;37.61;100274.25;5052159;28;19909;-49
2022/03/10 10:07:58;;;;;;;;;;;;;;;5.88;39.81;100281.38;5052183;28;19909;-47
2022/03/10 10:10:27;;;;;;;;;;;;;;;5.66;40.06;100288.06;5052120;28;19915;-51
2022/03/10 10:12:52;;;;;;;;;;;;;;;5.92;39.55;100271.31;5051432;28;19953;-49
2022/03/10 10:15:18;;;;;;;;;;;;;;;5.77;39.62;100279.00;5052452;28;19909;-48
2022/03/10 10:17:43;;;;;;;;;;;;;;;5.96;38.71;100276.16;5052429;28;19992;-48
2022/03/10 10:20:09;;;;;;;;;;;;;;;5.83;40.17;100276.56;5052333;28;20327;-49
2022/03/10 10:22:35;;;;;;;;;;;;;;;5.66;40.22;100285.41;5052259;28;20324;-49
2022/03/10 10:25:02;;;;;;;;;;;;;;;5.66;40.20;100283.59;5065483;28;19920;-48
2022/03/10 10:27:28;;;;;;;;;;;;;;;5.73;40.78;100294.38;5072130;28;19912;-49
2022/03/10 10:29:54;;;;;;;;;;;;;;;5.53;42.08;100296.41;5072877;28;19908;-48
2022/03/10 10:32:33;;;;;;;;;;;;;;;5.40;42.43;100302.09;5070707;28;20034;-51
2022/03/10 10:35:02;;;;;;;;;;;;;;;5.90;41.79;100307.63;5072869;28;20313;-50
2022/03/10 10:37:28;;;;;;;;;;;;;;;6.05;42.13;100296.34;5073036;28;20382;-50
2022/03/10 10:39:53;;;;;;;;;;;;;;;5.82;41.95;100289.94;5054717;28;19908;-49
2022/03/10 10:42:18;;;;;;;;;;;;;;;5.93;42.47;100288.81;5072911;28;19908;-48
2022/03/10 10:44:44;;;;;;;;;;;;;;;6.20;41.49;100285.94;5072596;28;20313;-51
2022/03/10 10:47:09;;;;;;;;;;;;;;;6.14;39.96;100280.50;5072636;28;19912;-51
2022/03/10 10:49:37;;;;;;;;;;;;;;;5.91;39.67;100273.13;5072433;28;20252;-49
2022/03/10 10:52:03;;;;;;;;;;;;;;;5.96;38.75;100264.75;5054113;28;19912;-50
2022/03/10 10:54:29;;;;;;;;;;;;;;;6.38;38.94;100271.81;5052476;28;19959;-50
2022/03/10 10:56:55;;;;;;;;;;;;;;;6.26;38.00;100265.97;5052250;28;19931;-50
2022/03/10 10:59:27;;;;;;;;;;;;;;;6.51;38.56;100253.63;5051946;28;19916;-49
2022/03/10 11:02:03;;;;;;;;;;;;;;;6.21;38.13;100255.09;5052214;28;19931;-48
2022/03/10 11:04:28;;;;;;;;;;;;;;;6.34;38.39;100263.38;5051953;28;19908;-49
2022/03/10 11:06:53;;;;;;;;;;;;;;;6.68;37.73;100259.72;5052551;28;20350;-48
2022/03/10 11:09:18;;;;;;;;;;;;;;;6.53;37.78;100250.81;5034417;28;19913;-50
2022/03/10 11:11:44;;;;;;;;;;;;;;;6.71;38.08;100253.31;5051908;28;20451;-48
2022/03/10 11:14:09;;;;;;;;;;;;;;;6.80;37.86;100253.13;5052160;28;19915;-48
2022/03/10 11:16:35;;;;;;;;;;;;;;;6.95;36.09;100260.38;5052092;28;19908;-48
2022/03/10 11:19:00;;;;;;;;;;;;;;;7.14;34.60;100254.75;5034467;28;20566;-49
2022/03/10 11:21:44;;;;;;;;;;;;;;;6.53;36.30;100256.94;5033917;28;20434;-49
2022/03/10 11:24:28;;;;;;;;;;;;;;;5.92;42.15;100255.47;5051448;28;19928;-49
2022/03/10 11:27:09;;;;;;;;;;;;;;;5.05;45.39;100264.28;5051713;28;19920;-49
2022/03/10 11:29:34;;;;;;;;;;;;;;;4.89;46.14;100262.38;5051554;28;19931;-49
2022/03/10 11:31:59;;;;;;;;;;;;;;;4.48;47.83;100269.94;5034107;28;20305;-48
2022/03/10 11:34:44;;;;;;;;;;;;;;;4.57;46.98;100276.13;5033659;28;19946;-48
2022/03/10 11:37:10;;;;;;;;;;;;;;;3.89;48.51;100274.78;5051383;28;20485;-49
2022/03/10 11:39:51;;;;;;;;;;;;;;;3.37;47.69;100284.13;5051645;28;20011;-48
2022/03/10 11:42:43;;;;;;;;;;;;;;;3.42;48.37;100280.09;5051235;28;20008;-50
2022/03/10 11:45:11;;;;;;;;;;;;;;;3.95;47.07;100283.06;5047004;28;20377;-48
2022/03/10 11:47:37;;;;;;;;;;;;;;;3.77;47.40;100278.59;5051544;28;20427;-49
2022/03/10 11:50:20;;;;;;;;;;;;;;;4.10;48.76;100273.69;5052942;28;19923;-50
2022/03/10 11:52:49;;;;;;;;;;;;;;;4.15;46.61;100268.81;5071566;28;19920;-48
2022/03/10 11:55:14;;;;;;;;;;;;;;;4.22;46.21;100272.47;5071470;28;20007;-48
2022/03/10 11:57:55;;;;;;;;;;;;;;;3.97;48.14;100270.59;5071488;28;20367;-48
2022/03/10 12:00:23;;;;;;;;;;;;;;;3.89;48.12;100266.88;5071439;28;19912;-50
2022/03/10 12:02:58;;;;;;;;;;;;;;;4.08;48.95;100268.56;5071551;28;19931;-49
2022/03/10 12:05:23;;;;;;;;;;;;;;;3.97;48.86;100273.22;5071188;28;19934;-50
2022/03/10 12:07:50;;;;;;;;;;;;;;;4.03;48.54;100275.25;5053180;28;19932;-49
2022/03/10 12:10:15;;;;;;;;;;;;;;;3.88;48.94;100277.53;5070267;28;19908;-47
2022/03/10 12:12:42;;;;;;;;;;;;;;;3.81;50.14;100274.69;5070858;28;20053;-49
2022/03/10 12:15:30;;;;;;;;;;;;;;;3.60;48.97;100274.94;5071267;28;20054;-49
2022/03/10 12:17:55;;;;;;;;;;;;;;;3.72;49.35;100278.19;5071012;28;19912;-49
2022/03/10 12:20:21;;;;;;;;;;;;;;;3.89;49.37;100276.59;5071183;28;19915;-49
2022/03/10 12:22:58;;;;;;;;;;;;;;;3.98;47.41;100277.50;5071061;28;20398;-49
2022/03/10 12:25:23;;;;;;;;;;;;;;;3.83;46.68;100278.00;5052569;28;20311;-51
2022/03/10 12:27:49;;;;;;;;;;;;;;;3.80;47.19;100275.66;5071382;28;19908;-49
2022/03/10 12:30:15;;;;;;;;;;;;;;;4.22;47.52;100279.56;5070718;28;20307;-52
2022/03/10 12:32:40;;;;;;;;;;;;;;;4.31;43.03;100276.88;5048853;28;19913;-50
2022/03/10 12:35:05;;;;;;;;;;;;;;;4.30;44.82;100280.50;5032782;28;19909;-52
2022/03/10 12:37:31;;;;;;;;;;;;;;;4.81;43.02;100280.75;5032998;28;19913;-50
2022/03/10 12:39:56;;;;;;;;;;;;;;;5.04;43.47;100291.63;5050852;28;19912;-51
2022/03/10 12:42:21;;;;;;;;;;;;;;;4.82;40.10;100282.44;5050911;28;19909;-48
2022/03/10 12:44:46;;;;;;;;;;;;;;;3.85;41.45;100283.94;5032972;28;19995;-52
2022/03/10 12:47:12;;;;;;;;;;;;;;;4.04;42.71;100282.19;5050869;28;19928;-49